createdAt,value
2022-11-20T00:00:37.019Z,46.70
2022-11-20T00:03:03.529Z,46.10
2022-11-20T00:05:29.992Z,46.20
2022-11-20T00:07:56.557Z,46.70
2022-11-20T00:10:23.016Z,46.60
2022-11-20T00:12:49.543Z,46.70
2022-11-20T00:15:15.977Z,46.00
2022-11-20T00:17:42.431Z,46.60
2022-11-20T00:20:08.885Z,46.60
2022-11-20T00:22:35.385Z,46.60
2022-11-20T00:25:01.851Z,46.10
2022-11-20T00:27:28.295Z,46.60
2022-11-20T00:29:54.855Z,46.50
2022-11-20T00:32:21.337Z,46.50
2022-11-20T00:34:47.931Z,46.00
2022-11-20T00:37:14.430Z,46.50
2022-11-20T00:39:40.887Z,46.50
2022-11-20T00:42:07.509Z,46.50
2022-11-20T00:44:33.979Z,45.90
2022-11-20T00:47:00.518Z,46.50
2022-11-20T00:49:26.993Z,46.50
2022-11-20T00:51:53.510Z,46.00
2022-11-20T00:54:19.957Z,46.10
2022-11-20T00:56:46.457Z,46.60
2022-11-20T00:59:12.890Z,46.10
2022-11-20T01:01:39.416Z,46.60
2022-11-20T01:04:05.916Z,46.20
2022-11-20T01:06:32.413Z,46.70
2022-11-20T01:08:58.847Z,46.70
2022-11-20T01:11:25.282Z,46.10
2022-11-20T01:13:51.742Z,46.00
2022-11-20T01:16:18.221Z,46.60
2022-11-20T01:18:44.654Z,46.60
2022-11-20T01:21:11.122Z,46.50
2022-11-20T01:23:37.627Z,46.40
2022-11-20T01:26:04.103Z,46.50
2022-11-20T01:28:30.577Z,46.40
2022-11-20T01:30:57.011Z,46.50
2022-11-20T01:33:23.498Z,46.00
2022-11-20T01:35:50.012Z,46.40
2022-11-20T01:38:16.459Z,46.30
2022-11-20T01:40:42.925Z,46.30
2022-11-20T01:43:09.410Z,46.30
2022-11-20T01:45:35.877Z,46.30
2022-11-20T01:48:02.368Z,46.20
2022-11-20T01:50:28.807Z,46.20
2022-11-20T01:52:55.234Z,46.20
2022-11-20T01:55:21.658Z,46.20
2022-11-20T01:57:48.099Z,46.10
2022-11-20T02:00:14.544Z,45.50
2022-11-20T02:02:41.041Z,46.10
2022-11-20T02:05:07.509Z,45.50
2022-11-20T02:07:34.012Z,46.00
2022-11-20T02:10:00.519Z,45.80
2022-11-20T02:12:27.007Z,46.00
2022-11-20T02:14:53.487Z,45.50
2022-11-20T02:17:19.924Z,46.10
2022-11-20T02:19:46.415Z,46.10
2022-11-20T02:22:12.860Z,46.00
2022-11-20T02:24:39.285Z,45.40
2022-11-20T02:27:05.709Z,45.90
2022-11-20T02:29:32.136Z,45.90
2022-11-20T02:31:58.583Z,45.90
2022-11-20T02:34:25.009Z,45.40
2022-11-20T02:36:51.504Z,45.90
2022-11-20T02:39:18.178Z,46.00
2022-11-20T02:41:44.743Z,45.90
2022-11-20T02:44:11.223Z,45.30
2022-11-20T02:46:37.693Z,45.80
2022-11-20T02:49:04.185Z,45.30
2022-11-20T02:51:30.653Z,45.50
2022-11-20T02:53:57.128Z,45.30
2022-11-20T02:56:23.609Z,45.80
2022-11-20T02:58:50.100Z,45.80
2022-11-20T03:01:16.594Z,45.80
2022-11-20T03:03:43.138Z,45.80
2022-11-20T03:06:09.563Z,45.70
2022-11-20T03:08:36.011Z,45.80
2022-11-20T03:11:02.446Z,45.80
2022-11-20T03:13:28.871Z,45.20
2022-11-20T03:15:55.355Z,45.10
2022-11-20T03:18:21.791Z,45.70
2022-11-20T03:20:48.282Z,45.60
2022-11-20T03:23:14.750Z,45.10
2022-11-20T03:25:41.238Z,45.60
2022-11-20T03:28:07.733Z,45.60
2022-11-20T03:30:34.164Z,45.70
2022-11-20T03:33:00.648Z,45.00
2022-11-20T03:35:27.074Z,45.70
2022-11-20T03:37:53.511Z,45.60
2022-11-20T03:40:19.933Z,45.60
2022-11-20T03:42:46.434Z,45.70
2022-11-20T03:45:12.907Z,45.00
2022-11-20T03:47:39.395Z,45.60
2022-11-20T03:50:05.867Z,45.50
2022-11-20T03:52:32.343Z,45.50
2022-11-20T03:54:58.822Z,45.60
2022-11-20T03:57:25.298Z,45.60
2022-11-20T03:59:51.734Z,45.50
2022-11-20T04:02:18.249Z,45.40
2022-11-20T04:04:44.773Z,45.50
2022-11-20T04:07:11.269Z,45.60
2022-11-20T04:09:37.835Z,45.10
2022-11-20T04:12:04.259Z,45.50
2022-11-20T04:14:30.713Z,45.00
2022-11-20T04:16:57.182Z,45.80
2022-11-20T04:19:23.807Z,45.70
2022-11-20T04:21:50.474Z,45.70
2022-11-20T04:24:16.950Z,45.70
2022-11-20T04:26:43.450Z,45.80
2022-11-20T04:29:09.939Z,45.80
2022-11-20T04:31:36.425Z,45.80
2022-11-20T04:34:02.844Z,45.30
2022-11-20T04:36:29.262Z,45.80
2022-11-20T04:38:57.224Z,45.80
2022-11-20T04:41:23.902Z,45.60
2022-11-20T04:43:50.396Z,45.60
2022-11-20T04:46:16.862Z,45.60
2022-11-20T04:48:43.347Z,45.60
2022-11-20T04:51:09.775Z,45.50
2022-11-20T04:53:36.193Z,44.90
2022-11-20T04:56:02.634Z,45.50
2022-11-20T04:58:29.114Z,45.40
2022-11-20T05:00:55.622Z,44.90
2022-11-20T05:03:22.047Z,45.00
2022-11-20T05:05:48.530Z,45.40
2022-11-20T05:08:15.007Z,45.30
2022-11-20T05:10:41.495Z,45.50
2022-11-20T05:13:08.018Z,45.40
2022-11-20T05:15:34.576Z,45.40
2022-11-20T05:18:01.168Z,45.50
2022-11-20T05:20:27.661Z,44.80
2022-11-20T05:22:54.162Z,44.90
2022-11-20T05:25:20.591Z,44.90
2022-11-20T05:27:47.010Z,45.50
2022-11-20T05:30:13.438Z,45.40
2022-11-20T05:32:39.903Z,45.10
2022-11-20T05:35:06.461Z,45.00
2022-11-20T05:37:32.927Z,45.00
2022-11-20T05:39:59.393Z,45.40
2022-11-20T05:42:25.880Z,45.40
2022-11-20T05:44:52.353Z,44.80
2022-11-20T05:47:18.794Z,44.70
2022-11-20T05:49:45.281Z,45.50
2022-11-20T05:52:11.705Z,45.50
2022-11-20T05:54:38.142Z,45.50
2022-11-20T05:57:04.563Z,45.40
2022-11-20T05:59:31.006Z,45.40
2022-11-20T06:01:57.477Z,45.40
2022-11-20T06:04:23.959Z,44.90
2022-11-20T06:06:50.390Z,44.70
2022-11-20T06:09:16.861Z,45.40
2022-11-20T06:11:43.296Z,44.80
2022-11-20T06:14:09.726Z,45.00
2022-11-20T06:16:36.286Z,45.50
2022-11-20T06:19:02.763Z,45.70
2022-11-20T06:21:29.241Z,45.20
2022-11-20T06:23:55.718Z,45.90
2022-11-20T06:26:22.197Z,45.80
2022-11-20T06:28:48.655Z,45.90
2022-11-20T06:31:15.127Z,45.90
2022-11-20T06:33:41.560Z,45.40
2022-11-20T06:36:10.962Z,45.90
2022-11-20T06:38:37.641Z,45.90
2022-11-20T06:41:04.086Z,45.80
2022-11-20T06:43:30.524Z,45.00
2022-11-20T06:45:56.998Z,45.70
2022-11-20T06:48:23.453Z,45.00
2022-11-20T06:50:49.880Z,45.20
2022-11-20T06:53:16.428Z,45.20
2022-11-20T06:55:42.874Z,45.80
2022-11-20T06:58:09.331Z,45.80
2022-11-20T07:00:35.820Z,45.10
2022-11-20T07:03:02.299Z,45.70
2022-11-20T07:05:28.765Z,45.20
2022-11-20T07:07:55.207Z,45.70
2022-11-20T07:10:21.661Z,45.80
2022-11-20T07:12:48.138Z,45.90
2022-11-20T07:15:14.587Z,45.50
2022-11-20T07:17:41.015Z,45.80
2022-11-20T07:20:07.498Z,45.90
2022-11-20T07:22:33.923Z,45.90
2022-11-20T07:25:00.412Z,45.40
2022-11-20T07:27:26.844Z,46.00
2022-11-20T07:29:53.276Z,46.00
2022-11-20T07:32:19.741Z,45.50
2022-11-20T07:34:46.190Z,46.00
2022-11-20T07:37:12.639Z,45.50
2022-11-20T07:39:39.092Z,46.10
2022-11-20T07:42:05.582Z,46.00
2022-11-20T07:44:32.078Z,45.60
2022-11-20T07:46:58.530Z,46.00
2022-11-20T07:49:24.997Z,45.60
2022-11-20T07:51:52.088Z,46.00
2022-11-20T07:54:18.577Z,45.60
2022-11-20T07:56:45.045Z,46.00
2022-11-20T07:59:11.550Z,45.90
2022-11-20T08:01:37.970Z,45.90
2022-11-20T08:04:04.408Z,45.90
2022-11-20T08:06:30.856Z,45.80
2022-11-20T08:08:57.282Z,45.80
2022-11-20T08:11:23.719Z,45.20
2022-11-20T08:13:50.138Z,45.20
2022-11-20T08:16:16.609Z,45.80
2022-11-20T08:18:43.086Z,45.20
2022-11-20T08:21:09.564Z,45.10
2022-11-20T08:23:36.006Z,45.30
2022-11-20T08:26:02.450Z,45.50
2022-11-20T08:28:28.914Z,45.90
2022-11-20T08:30:55.403Z,45.10
2022-11-20T08:33:21.838Z,45.30
2022-11-20T08:35:48.304Z,45.80
2022-11-20T08:38:14.747Z,45.30
2022-11-20T08:40:41.188Z,45.90
2022-11-20T08:43:07.610Z,45.90
2022-11-20T08:45:35.212Z,45.30
2022-11-20T08:48:02.008Z,45.30
2022-11-20T08:50:28.493Z,45.40
2022-11-20T08:52:54.983Z,45.90
2022-11-20T08:55:21.415Z,45.60
2022-11-20T08:57:50.870Z,46.00
2022-11-20T09:00:17.691Z,46.00
2022-11-20T09:02:44.129Z,46.10
2022-11-20T09:05:10.600Z,45.80
2022-11-20T09:07:37.156Z,45.80
2022-11-20T09:10:23.000Z,45.80
2022-11-20T09:12:50.114Z,45.50
2022-11-20T09:15:16.547Z,45.30
2022-11-20T09:17:43.063Z,45.30
2022-11-20T09:20:09.497Z,45.90
2022-11-20T09:22:35.921Z,45.00
2022-11-20T09:25:02.357Z,45.80
2022-11-20T09:27:28.779Z,45.80
2022-11-20T09:29:55.251Z,45.80
2022-11-20T09:32:21.686Z,45.80
2022-11-20T09:34:48.116Z,45.20
2022-11-20T09:37:14.590Z,45.80
2022-11-20T09:39:41.048Z,45.90
2022-11-20T09:42:07.530Z,45.40
2022-11-20T09:44:34.018Z,45.30
2022-11-20T09:47:00.521Z,46.00
2022-11-20T09:49:32.100Z,45.80
2022-11-20T09:51:58.948Z,46.10
2022-11-20T09:54:25.423Z,46.10
2022-11-20T09:56:51.867Z,46.00
2022-11-20T09:59:18.410Z,46.00
2022-11-20T10:01:45.002Z,45.50
2022-11-20T10:04:11.487Z,45.80
2022-11-20T10:06:37.982Z,46.00
2022-11-20T10:09:04.432Z,46.00
2022-11-20T10:11:30.930Z,45.90
2022-11-20T10:13:57.368Z,45.40
2022-11-20T10:16:23.833Z,45.50
2022-11-20T10:18:50.333Z,45.90
2022-11-20T10:21:16.820Z,45.90
2022-11-20T10:23:43.281Z,45.40
2022-11-20T10:26:09.752Z,45.90
2022-11-20T10:28:36.409Z,45.80
2022-11-20T10:31:02.865Z,45.40
2022-11-20T10:33:50.040Z,45.80
2022-11-20T10:36:15.854Z,45.40
2022-11-20T10:38:42.361Z,45.40
2022-11-20T10:41:08.823Z,46.00
2022-11-20T10:43:35.334Z,45.50
2022-11-20T10:46:01.831Z,46.00
2022-11-20T10:48:28.262Z,46.10
2022-11-20T10:50:55.071Z,46.10
2022-11-20T10:53:21.490Z,45.90
2022-11-20T10:55:47.916Z,46.10
2022-11-20T10:58:14.382Z,46.00
2022-11-20T11:00:41.112Z,47.20
2022-11-20T11:03:07.659Z,46.70
2022-11-20T11:05:34.112Z,46.20
2022-11-20T11:08:00.603Z,47.00
2022-11-20T11:10:27.085Z,47.10
2022-11-20T11:12:53.558Z,47.00
2022-11-20T11:15:20.020Z,47.00
2022-11-20T11:17:46.534Z,47.40
2022-11-20T11:20:12.973Z,47.90
2022-11-20T11:22:39.460Z,47.90
2022-11-20T11:25:05.929Z,47.90
2022-11-20T11:27:32.394Z,48.30
2022-11-20T11:29:58.893Z,48.20
2022-11-20T11:32:25.332Z,48.00
2022-11-20T11:34:51.769Z,47.80
2022-11-20T11:37:18.252Z,47.90
2022-11-20T11:39:44.727Z,47.90
2022-11-20T11:42:11.151Z,47.20
2022-11-20T11:44:37.622Z,47.20
2022-11-20T11:47:04.633Z,47.10
2022-11-20T11:49:31.074Z,47.50
2022-11-20T11:51:57.498Z,47.50
2022-11-20T11:54:24.012Z,46.90
2022-11-20T11:56:50.452Z,47.50
2022-11-20T11:59:16.874Z,47.20
2022-11-20T12:01:43.341Z,46.40
2022-11-20T12:04:09.793Z,46.40
2022-11-20T12:06:36.301Z,46.20
2022-11-20T12:09:02.728Z,46.60
2022-11-20T12:11:29.194Z,46.50
2022-11-20T12:13:55.676Z,45.80
2022-11-20T12:16:22.101Z,46.30
2022-11-20T12:18:48.553Z,45.80
2022-11-20T12:21:15.028Z,46.50
2022-11-20T12:23:41.516Z,46.00
2022-11-20T12:28:35.043Z,45.80
2022-11-20T12:31:01.509Z,46.70
2022-11-20T12:33:27.935Z,46.20
2022-11-20T12:35:54.605Z,46.80
2022-11-20T12:38:21.073Z,46.40
2022-11-20T12:40:47.508Z,46.80
2022-11-20T12:43:13.971Z,46.20
2022-11-20T12:45:40.400Z,46.20
2022-11-20T12:48:06.888Z,46.80
2022-11-20T12:53:09.562Z,46.30
2022-11-20T12:55:36.028Z,46.80
2022-11-20T12:58:02.497Z,46.80
2022-11-20T13:00:28.967Z,46.90
2022-11-20T13:02:55.443Z,46.90
2022-11-20T13:05:21.907Z,47.00
2022-11-20T13:07:48.347Z,47.20
2022-11-20T13:10:14.807Z,46.60
2022-11-20T13:12:41.310Z,47.20
2022-11-20T13:15:07.748Z,47.40
2022-11-20T13:17:34.207Z,47.30
2022-11-20T13:20:00.703Z,47.30
2022-11-20T13:22:27.166Z,47.20
2022-11-20T13:24:53.595Z,47.20
2022-11-20T13:27:20.085Z,47.30
2022-11-20T13:29:46.517Z,46.70
2022-11-20T13:32:12.985Z,47.10
2022-11-20T13:34:39.420Z,46.60
2022-11-20T13:37:05.884Z,47.20
2022-11-20T13:39:32.310Z,47.60
2022-11-20T13:41:58.781Z,47.60
2022-11-20T13:44:25.489Z,47.00
2022-11-20T13:46:52.036Z,47.40
2022-11-20T13:49:18.459Z,47.20
2022-11-20T13:51:44.879Z,46.50
2022-11-20T13:54:11.357Z,46.80
2022-11-20T13:56:37.855Z,47.30
2022-11-20T13:59:05.479Z,47.30
2022-11-20T14:01:32.492Z,47.20
2022-11-20T14:04:06.127Z,47.30
2022-11-20T14:06:33.099Z,46.60
2022-11-20T14:08:59.582Z,47.10
2022-11-20T14:11:26.055Z,47.10
2022-11-20T14:13:52.515Z,46.50
2022-11-20T14:16:18.996Z,46.30
2022-11-20T14:18:45.447Z,47.10
2022-11-20T14:21:11.868Z,47.00
2022-11-20T14:23:38.370Z,46.50
2022-11-20T14:26:04.844Z,47.10
2022-11-20T14:28:31.322Z,47.10
2022-11-20T14:30:57.847Z,46.50
2022-11-20T14:33:24.337Z,46.60
2022-11-20T14:35:50.805Z,47.00
2022-11-20T14:38:17.274Z,47.00
2022-11-20T14:40:43.705Z,46.90
2022-11-20T14:43:10.129Z,45.50
2022-11-20T14:45:36.578Z,46.30
2022-11-20T14:48:03.052Z,48.40
2022-11-20T14:50:29.546Z,46.40
2022-11-20T14:52:55.982Z,46.90
2022-11-20T14:55:22.479Z,46.30
2022-11-20T14:57:48.914Z,46.30
2022-11-20T15:00:15.366Z,46.80
2022-11-20T15:02:41.783Z,46.50
2022-11-20T15:05:08.224Z,46.80
2022-11-20T15:07:34.692Z,46.70
2022-11-20T15:10:01.228Z,46.60
2022-11-20T15:12:27.716Z,46.60
2022-11-20T15:14:54.132Z,46.10
2022-11-20T15:17:20.574Z,46.70
2022-11-20T15:19:46.999Z,46.60
2022-11-20T15:22:13.441Z,45.90
2022-11-20T15:24:39.877Z,46.20
2022-11-20T15:27:06.343Z,46.10
2022-11-20T15:29:32.764Z,46.60
2022-11-20T15:31:59.222Z,46.50
2022-11-20T15:34:25.978Z,46.00
2022-11-20T15:36:52.494Z,46.50
2022-11-20T15:39:18.969Z,46.50
2022-11-20T15:41:45.477Z,46.60
2022-11-20T15:44:11.902Z,46.10
2022-11-20T15:46:38.407Z,46.70
2022-11-20T15:49:05.000Z,46.70
2022-11-20T15:51:31.510Z,46.70
2022-11-20T15:53:57.976Z,46.70
2022-11-20T15:56:24.461Z,46.00
2022-11-20T15:58:50.944Z,46.60
2022-11-20T16:01:17.452Z,46.20
2022-11-20T16:03:44.002Z,47.30
2022-11-20T16:06:10.442Z,46.70
2022-11-20T16:08:36.878Z,46.70
2022-11-20T16:11:03.355Z,46.70
2022-11-20T16:13:29.844Z,46.50
2022-11-20T16:15:56.309Z,46.70
2022-11-20T16:18:22.763Z,46.90
2022-11-20T16:20:49.231Z,46.90
2022-11-20T16:25:42.686Z,46.50
2022-11-20T16:28:09.178Z,47.10
2022-11-20T16:30:35.638Z,47.20
2022-11-20T16:33:02.081Z,47.00
2022-11-20T16:35:28.534Z,46.40
2022-11-20T16:37:54.966Z,47.00
2022-11-20T16:40:21.454Z,46.50
2022-11-20T16:42:47.898Z,46.30
2022-11-20T16:45:14.317Z,46.40
2022-11-20T16:47:40.763Z,46.60
2022-11-20T16:50:07.194Z,47.00
2022-11-20T16:52:33.636Z,47.10
2022-11-20T16:55:00.098Z,47.00
2022-11-20T16:57:26.539Z,47.20
2022-11-20T16:59:52.982Z,47.20
2022-11-20T17:02:19.493Z,47.20
2022-11-20T17:04:45.915Z,46.60
2022-11-20T17:07:12.448Z,47.10
2022-11-20T17:09:38.968Z,47.10
2022-11-20T17:12:05.464Z,47.10
2022-11-20T17:14:31.923Z,47.10
2022-11-20T17:16:58.389Z,46.50
2022-11-20T17:19:24.854Z,47.00
2022-11-20T17:21:51.313Z,46.90
2022-11-20T17:24:17.795Z,47.00
2022-11-20T17:26:44.250Z,46.20
2022-11-20T17:29:10.742Z,47.10
2022-11-20T17:31:37.185Z,46.40
2022-11-20T17:34:03.669Z,47.10
2022-11-20T17:36:30.151Z,46.90
2022-11-20T17:38:56.586Z,46.90
2022-11-20T17:41:23.029Z,46.20
2022-11-20T17:43:49.460Z,46.90
2022-11-20T17:46:15.889Z,46.90
2022-11-20T17:48:42.343Z,46.90
2022-11-20T17:51:08.819Z,47.00
2022-11-20T17:53:35.271Z,47.20
2022-11-20T17:56:01.703Z,47.30
2022-11-20T17:58:28.170Z,47.30
2022-11-20T18:00:56.499Z,47.40
2022-11-20T18:03:23.211Z,47.40
2022-11-20T18:05:49.732Z,47.00
2022-11-20T18:08:16.190Z,47.30
2022-11-20T18:10:42.618Z,46.70
2022-11-20T18:13:09.031Z,47.30
2022-11-20T18:15:35.453Z,47.30
2022-11-20T18:18:01.917Z,47.30
2022-11-20T18:20:31.972Z,45.90
2022-11-20T18:23:00.502Z,47.30
2022-11-20T18:25:26.947Z,47.30
2022-11-20T18:27:53.391Z,47.30
2022-11-20T18:30:19.906Z,47.30
2022-11-20T18:32:46.384Z,47.30
2022-11-20T18:35:12.838Z,47.30
2022-11-20T18:37:39.298Z,47.30
2022-11-20T18:40:05.810Z,46.50
2022-11-20T18:42:32.309Z,47.20
2022-11-20T18:44:58.802Z,47.20
2022-11-20T18:47:25.292Z,47.20
2022-11-20T18:49:51.774Z,47.20
2022-11-20T18:52:18.290Z,46.70
2022-11-20T18:54:44.719Z,46.60
2022-11-20T18:57:11.206Z,46.70
2022-11-20T18:59:37.706Z,47.30
2022-11-20T19:02:04.141Z,47.30
2022-11-20T19:04:30.631Z,47.00
2022-11-20T19:06:57.124Z,47.30
2022-11-20T19:09:24.033Z,46.80
2022-11-20T19:11:50.806Z,46.90
2022-11-20T19:14:17.277Z,47.40
2022-11-20T19:16:43.756Z,47.40
2022-11-20T19:19:10.308Z,47.40
2022-11-20T19:21:36.740Z,46.80
2022-11-20T19:24:03.198Z,46.80
2022-11-20T19:26:29.684Z,46.80
2022-11-20T19:28:56.157Z,47.30
2022-11-20T19:31:24.663Z,47.30
2022-11-20T19:33:51.376Z,47.40
2022-11-20T19:36:17.831Z,47.30
2022-11-20T19:38:47.779Z,47.20
2022-11-20T19:41:14.503Z,47.30
2022-11-20T19:43:40.944Z,47.30
2022-11-20T19:46:07.484Z,47.30
2022-11-20T19:48:33.921Z,47.30
2022-11-20T19:51:00.353Z,47.30
2022-11-20T19:53:26.784Z,46.80
2022-11-20T19:55:53.211Z,47.40
2022-11-20T19:58:19.684Z,47.30
2022-11-20T20:00:46.171Z,47.30
2022-11-20T20:03:12.695Z,47.30
2022-11-20T20:05:39.170Z,47.30
2022-11-20T20:08:05.678Z,47.30
2022-11-20T20:10:32.116Z,47.30
2022-11-20T20:12:58.565Z,47.40
2022-11-20T20:15:25.046Z,47.40
2022-11-20T20:17:51.509Z,47.50
2022-11-20T20:20:17.977Z,47.50
2022-11-20T20:22:44.441Z,47.50
2022-11-20T20:25:10.875Z,47.50
2022-11-20T20:27:37.343Z,47.60
2022-11-20T20:30:03.784Z,46.90
2022-11-20T20:32:30.285Z,47.60
2022-11-20T20:34:56.715Z,47.50
2022-11-20T20:37:23.170Z,47.50
2022-11-20T20:39:49.630Z,47.40
2022-11-20T20:42:16.087Z,47.40
2022-11-20T20:44:42.570Z,47.30
2022-11-20T20:47:09.026Z,46.70
2022-11-20T20:49:35.462Z,47.20
2022-11-20T20:52:01.902Z,47.20
2022-11-20T20:54:33.054Z,47.20
2022-11-20T20:57:00.751Z,47.10
2022-11-20T20:59:27.238Z,47.10
2022-11-20T21:01:53.741Z,46.50
2022-11-20T21:04:20.208Z,46.50
2022-11-20T21:06:46.692Z,47.00
2022-11-20T21:09:13.205Z,46.90
2022-11-20T21:11:39.693Z,46.40
2022-11-20T21:14:06.173Z,46.80
2022-11-20T21:16:32.614Z,46.20
2022-11-20T21:18:59.069Z,46.70
2022-11-20T21:21:25.525Z,46.10
2022-11-20T21:23:51.976Z,46.00
2022-11-20T21:26:18.555Z,46.60
2022-11-20T21:28:45.016Z,46.60
2022-11-20T21:31:11.470Z,46.60
2022-11-20T21:33:37.951Z,46.70
2022-11-20T21:36:04.457Z,46.10
2022-11-20T21:38:30.886Z,46.60
2022-11-20T21:40:57.350Z,46.20
2022-11-20T21:43:23.846Z,46.70
2022-11-20T21:45:50.323Z,46.70
2022-11-20T21:48:16.817Z,46.70
2022-11-20T21:50:43.290Z,46.70
2022-11-20T21:53:09.757Z,46.60
2022-11-20T21:55:36.192Z,46.60
2022-11-20T21:58:02.635Z,46.60
2022-11-20T22:00:29.060Z,46.50
2022-11-20T22:02:55.487Z,46.40
2022-11-20T22:05:21.966Z,46.50
2022-11-20T22:07:48.441Z,46.50
2022-11-20T22:10:18.516Z,45.90
2022-11-20T22:12:45.296Z,46.40
2022-11-20T22:15:11.726Z,46.30
2022-11-20T22:17:38.150Z,46.30
2022-11-20T22:20:04.610Z,45.50
2022-11-20T22:22:31.039Z,45.80
2022-11-20T22:24:57.543Z,46.10
2022-11-20T22:27:23.995Z,46.20
2022-11-20T22:29:50.418Z,45.50
2022-11-20T22:32:16.877Z,46.00
2022-11-20T22:34:43.306Z,46.10
2022-11-20T22:37:09.799Z,45.60
2022-11-20T22:39:36.265Z,46.10
2022-11-20T22:42:02.773Z,45.50
2022-11-20T22:44:29.225Z,46.10
2022-11-20T22:46:55.677Z,46.10
2022-11-20T22:49:22.131Z,46.00
2022-11-20T22:51:48.554Z,46.00
2022-11-20T22:54:15.021Z,46.00
2022-11-20T22:56:41.466Z,45.60
2022-11-20T22:59:07.947Z,46.00
2022-11-20T23:01:34.431Z,46.00
2022-11-20T23:04:00.971Z,46.00
2022-11-20T23:06:27.442Z,45.90
2022-11-20T23:08:53.926Z,46.00
2022-11-20T23:11:20.357Z,45.40
2022-11-20T23:13:46.791Z,45.90
2022-11-20T23:16:13.221Z,45.90
2022-11-20T23:18:39.641Z,45.30
2022-11-20T23:21:06.053Z,45.40
2022-11-20T23:23:32.536Z,46.00
2022-11-20T23:25:59.009Z,45.90
2022-11-20T23:28:25.460Z,45.40
2022-11-20T23:30:51.898Z,45.40
2022-11-20T23:33:18.390Z,45.80
2022-11-20T23:35:44.885Z,45.30
2022-11-20T23:38:11.412Z,45.30
2022-11-20T23:40:41.241Z,45.30
2022-11-20T23:43:07.998Z,45.80
2022-11-20T23:45:34.514Z,45.20
2022-11-20T23:48:00.975Z,45.40
2022-11-20T23:50:27.466Z,45.50
2022-11-20T23:52:53.930Z,45.90
2022-11-20T23:55:20.396Z,45.40
2022-11-20T23:57:46.837Z,45.90
